createdAt,value
2017-11-04T00:00:27.220Z,100.0
2017-11-04T00:01:28.815Z,100.0
2017-11-04T00:02:30.256Z,100.0
2017-11-04T00:03:32.011Z,100.0
2017-11-04T00:04:33.463Z,100.0
2017-11-04T00:05:34.942Z,100.0
2017-11-04T00:06:36.589Z,100.0
2017-11-04T00:07:38.062Z,100.0
2017-11-04T00:08:39.583Z,100.0
2017-11-04T00:09:41.156Z,100.0
2017-11-04T00:10:42.780Z,100.0
2017-11-04T00:11:44.424Z,100.0
2017-11-04T00:12:45.941Z,100.0
2017-11-04T00:13:47.397Z,100.0
2017-11-04T00:14:48.952Z,100.0
2017-11-04T00:15:50.433Z,100.0
2017-11-04T00:16:52.201Z,100.0
2017-11-04T00:17:53.783Z,100.0
2017-11-04T00:18:55.428Z,100.0
2017-11-04T00:19:56.857Z,100.0
2017-11-04T00:20:58.370Z,100.0
2017-11-04T00:21:59.893Z,100.0
2017-11-04T00:23:01.573Z,100.0
2017-11-04T00:24:03.461Z,100.0
2017-11-04T00:25:05.101Z,100.0
2017-11-04T00:26:06.555Z,100.0
2017-11-04T00:27:08.078Z,100.0
2017-11-04T00:28:09.557Z,100.0
2017-11-04T00:29:11.154Z,100.0
2017-11-04T00:30:12.569Z,100.0
2017-11-04T00:31:14.475Z,100.0
2017-11-04T00:32:15.889Z,100.0
2017-11-04T00:33:17.369Z,100.0
2017-11-04T00:34:18.846Z,100.0
2017-11-04T00:35:20.315Z,100.0
2017-11-04T00:36:21.768Z,100.0
2017-11-04T00:37:23.315Z,100.0
2017-11-04T00:38:24.731Z,100.0
2017-11-04T00:39:26.210Z,100.0
2017-11-04T00:40:27.692Z,100.0
2017-11-04T00:41:29.180Z,100.0
2017-11-04T00:42:30.637Z,100.0
2017-11-04T00:43:32.084Z,100.0
2017-11-04T00:44:33.544Z,100.0
2017-11-04T00:45:35.534Z,100.0
2017-11-04T00:46:37.012Z,100.0
2017-11-04T00:47:38.522Z,100.0
2017-11-04T00:48:39.985Z,100.0
2017-11-04T00:49:41.417Z,100.0
2017-11-04T00:50:42.859Z,100.0
2017-11-04T00:51:44.312Z,100.0
2017-11-04T00:52:45.760Z,100.0
2017-11-04T00:53:47.221Z,100.0
2017-11-04T00:54:48.703Z,100.0
2017-11-04T00:55:50.169Z,100.0
2017-11-04T00:56:51.645Z,100.0
2017-11-04T00:57:53.066Z,100.0
2017-11-04T00:58:54.505Z,100.0
2017-11-04T00:59:55.977Z,100.0
2017-11-04T01:00:57.404Z,100.0
2017-11-04T01:01:58.868Z,100.0
2017-11-04T01:03:00.292Z,100.0
2017-11-04T01:04:01.706Z,100.0
2017-11-04T01:05:03.188Z,100.0
2017-11-04T01:06:04.627Z,100.0
2017-11-04T01:07:06.047Z,100.0
2017-11-04T01:08:07.521Z,100.0
2017-11-04T01:09:08.985Z,100.0
2017-11-04T01:10:10.449Z,100.0
2017-11-04T01:11:11.925Z,100.0
2017-11-04T01:12:13.405Z,100.0
2017-11-04T01:13:14.850Z,100.0
2017-11-04T01:14:16.312Z,100.0
2017-11-04T01:15:17.820Z,100.0
2017-11-04T01:16:19.274Z,100.0
2017-11-04T01:17:20.701Z,100.0
2017-11-04T01:18:22.139Z,100.0
2017-11-04T01:19:23.635Z,100.0
2017-11-04T01:20:25.124Z,100.0
2017-11-04T01:21:26.588Z,100.0
2017-11-04T01:22:28.093Z,100.0
2017-11-04T01:23:29.548Z,100.0
2017-11-04T01:24:31.016Z,100.0
2017-11-04T01:25:32.568Z,100.0
2017-11-04T01:26:34.094Z,100.0
2017-11-04T01:27:35.581Z,100.0
2017-11-04T01:28:37.049Z,100.0
2017-11-04T01:29:38.492Z,100.0
2017-11-04T01:30:39.993Z,100.0
2017-11-04T01:31:41.466Z,100.0
2017-11-04T01:32:42.961Z,100.0
2017-11-04T01:33:44.543Z,100.0
2017-11-04T01:34:46.024Z,100.0
2017-11-04T01:35:47.511Z,100.0
2017-11-04T01:36:48.972Z,100.0
2017-11-04T01:37:50.440Z,100.0
2017-11-04T01:38:51.980Z,100.0
2017-11-04T01:39:53.451Z,100.0
2017-11-04T01:40:54.960Z,100.0
2017-11-04T01:41:56.388Z,100.0
2017-11-04T01:42:57.857Z,100.0
2017-11-04T01:43:59.363Z,100.0
2017-11-04T01:45:00.802Z,100.0
2017-11-04T01:46:02.290Z,100.0
2017-11-04T01:47:03.775Z,100.0
2017-11-04T01:48:05.246Z,100.0
2017-11-04T01:49:06.733Z,100.0
2017-11-04T01:50:08.195Z,100.0
2017-11-04T01:51:09.670Z,100.0
2017-11-04T01:52:11.118Z,100.0
2017-11-04T01:53:12.631Z,100.0
2017-11-04T01:54:14.147Z,100.0
2017-11-04T01:55:15.672Z,100.0
2017-11-04T01:56:17.109Z,100.0
2017-11-04T01:57:18.533Z,100.0
2017-11-04T01:58:19.964Z,100.0
2017-11-04T01:59:21.497Z,100.0
2017-11-04T02:00:22.968Z,100.0
2017-11-04T02:01:24.410Z,100.0
2017-11-04T02:02:25.894Z,100.0
2017-11-04T02:03:27.365Z,100.0
2017-11-04T02:04:28.834Z,100.0
2017-11-04T02:05:30.298Z,100.0
2017-11-04T02:06:31.774Z,100.0
2017-11-04T02:07:33.245Z,100.0
2017-11-04T02:08:34.744Z,100.0
2017-11-04T02:09:36.237Z,100.0
2017-11-04T02:10:37.755Z,100.0
2017-11-04T02:11:39.210Z,100.0
2017-11-04T02:12:40.687Z,100.0
2017-11-04T02:13:42.137Z,100.0
2017-11-04T02:14:43.602Z,100.0
2017-11-04T02:15:45.062Z,100.0
2017-11-04T02:16:46.490Z,100.0
2017-11-04T02:17:47.929Z,100.0
2017-11-04T02:18:49.477Z,100.0
2017-11-04T02:19:50.923Z,100.0
2017-11-04T02:20:52.427Z,100.0
2017-11-04T02:21:53.894Z,100.0
2017-11-04T02:22:55.403Z,100.0
2017-11-04T02:23:56.851Z,100.0
2017-11-04T02:24:58.393Z,100.0
2017-11-04T02:25:59.880Z,100.0
2017-11-04T02:27:01.396Z,100.0
2017-11-04T02:28:02.836Z,100.0
2017-11-04T02:29:04.318Z,100.0
2017-11-04T02:30:05.747Z,100.0
2017-11-04T02:31:07.217Z,100.0
2017-11-04T02:32:08.703Z,100.0
2017-11-04T02:33:10.135Z,100.0
2017-11-04T02:34:11.603Z,100.0
2017-11-04T02:35:13.099Z,100.0
2017-11-04T02:36:14.575Z,100.0
2017-11-04T02:37:16.089Z,100.0
2017-11-04T02:38:17.493Z,100.0
2017-11-04T02:39:19.004Z,100.0
2017-11-04T02:40:20.415Z,100.0
2017-11-04T02:41:21.844Z,100.0
2017-11-04T02:42:23.308Z,100.0
2017-11-04T02:43:24.825Z,100.0
2017-11-04T02:44:26.266Z,100.0
2017-11-04T02:45:27.798Z,100.0
2017-11-04T02:46:29.230Z,100.0
2017-11-04T02:47:30.680Z,100.0
2017-11-04T02:48:32.153Z,100.0
2017-11-04T02:49:33.627Z,100.0
2017-11-04T02:50:35.144Z,100.0
2017-11-04T02:51:36.539Z,100.0
2017-11-04T02:52:38.028Z,100.0
2017-11-04T02:53:39.449Z,100.0
2017-11-04T02:54:40.911Z,100.0
2017-11-04T02:55:42.373Z,100.0
2017-11-04T02:56:43.859Z,100.0
2017-11-04T02:57:45.294Z,100.0
2017-11-04T02:58:46.829Z,100.0
2017-11-04T02:59:48.332Z,100.0
2017-11-04T03:00:49.771Z,100.0
2017-11-04T03:01:51.221Z,100.0
2017-11-04T03:02:52.670Z,100.0
2017-11-04T03:03:54.155Z,100.0
2017-11-04T03:04:55.618Z,100.0
2017-11-04T03:05:57.082Z,100.0
2017-11-04T03:06:58.595Z,100.0
2017-11-04T03:08:00.034Z,100.0
2017-11-04T03:09:01.496Z,100.0
2017-11-04T03:10:02.959Z,100.0
2017-11-04T03:11:04.429Z,100.0
2017-11-04T03:12:05.883Z,100.0
2017-11-04T03:13:07.302Z,100.0
2017-11-04T03:14:08.778Z,100.0
2017-11-04T03:15:10.197Z,100.0
2017-11-04T03:16:11.647Z,100.0
2017-11-04T03:17:13.054Z,100.0
2017-11-04T03:18:14.499Z,100.0
2017-11-04T03:19:15.978Z,100.0
2017-11-04T03:20:17.471Z,100.0
2017-11-04T03:21:18.919Z,100.0
2017-11-04T03:22:20.346Z,100.0
2017-11-04T03:23:21.844Z,100.0
2017-11-04T03:24:23.376Z,100.0
2017-11-04T03:25:24.818Z,100.0
2017-11-04T03:26:26.283Z,100.0
2017-11-04T03:27:27.724Z,100.0
2017-11-04T03:28:29.185Z,100.0
2017-11-04T03:29:30.613Z,100.0
2017-11-04T03:30:32.098Z,100.0
2017-11-04T03:31:33.541Z,100.0
2017-11-04T03:32:35.041Z,100.0
2017-11-04T03:33:36.525Z,100.0
2017-11-04T03:34:37.989Z,100.0
2017-11-04T03:35:39.460Z,100.0
2017-11-04T03:36:40.903Z,100.0
2017-11-04T03:37:42.368Z,100.0
2017-11-04T03:38:43.881Z,100.0
2017-11-04T03:39:45.400Z,100.0
2017-11-04T03:40:46.856Z,100.0
2017-11-04T03:41:48.304Z,100.0
2017-11-04T03:42:49.772Z,100.0
2017-11-04T03:43:51.213Z,100.0
2017-11-04T03:44:52.648Z,100.0
2017-11-04T03:45:54.168Z,100.0
2017-11-04T03:46:55.616Z,100.0
2017-11-04T03:47:57.106Z,100.0
2017-11-04T03:48:58.535Z,100.0
2017-11-04T03:49:59.966Z,100.0
2017-11-04T03:51:01.417Z,100.0
2017-11-04T03:52:02.881Z,100.0
2017-11-04T03:53:04.318Z,100.0
2017-11-04T03:54:05.830Z,100.0
2017-11-04T03:55:07.304Z,100.0
2017-11-04T03:56:08.786Z,100.0
2017-11-04T03:57:10.208Z,100.0
2017-11-04T03:58:11.684Z,100.0
2017-11-04T03:59:13.194Z,100.0
2017-11-04T04:00:14.630Z,100.0
2017-11-04T04:01:16.129Z,100.0
2017-11-04T04:02:17.626Z,100.0
2017-11-04T04:03:19.071Z,100.0
2017-11-04T04:04:20.570Z,100.0
2017-11-04T04:05:22.038Z,100.0
2017-11-04T04:06:23.521Z,100.0
2017-11-04T04:07:24.944Z,100.0
2017-11-04T04:08:26.462Z,100.0
2017-11-04T04:09:27.909Z,100.0
2017-11-04T04:10:29.366Z,100.0
2017-11-04T04:11:30.799Z,100.0
2017-11-04T04:12:32.226Z,100.0
2017-11-04T04:13:33.648Z,100.0
2017-11-04T04:14:35.082Z,100.0
2017-11-04T04:15:36.570Z,100.0
2017-11-04T04:16:38.047Z,100.0
2017-11-04T04:17:39.503Z,100.0
2017-11-04T04:18:40.938Z,100.0
2017-11-04T04:19:42.414Z,100.0
2017-11-04T04:20:43.864Z,100.0
2017-11-04T04:21:45.318Z,100.0
2017-11-04T04:22:46.805Z,100.0
2017-11-04T04:23:48.264Z,100.0
2017-11-04T04:24:49.692Z,100.0
2017-11-04T04:25:51.178Z,100.0
2017-11-04T04:26:52.649Z,100.0
2017-11-04T04:27:54.109Z,100.0
2017-11-04T04:28:55.574Z,100.0
2017-11-04T04:29:57.059Z,100.0
2017-11-04T04:30:58.516Z,100.0
2017-11-04T04:31:59.965Z,100.0
2017-11-04T04:33:01.447Z,100.0
2017-11-04T04:34:02.900Z,100.0
2017-11-04T04:35:04.344Z,100.0
2017-11-04T04:36:05.795Z,100.0
2017-11-04T04:37:07.254Z,100.0
2017-11-04T04:38:08.699Z,100.0
2017-11-04T04:39:10.138Z,100.0
2017-11-04T04:40:11.612Z,100.0
2017-11-04T04:41:13.036Z,100.0
2017-11-04T04:42:14.502Z,100.0
2017-11-04T04:43:15.946Z,100.0
2017-11-04T04:44:17.447Z,100.0
2017-11-04T04:45:18.861Z,100.0
2017-11-04T04:46:20.292Z,100.0
2017-11-04T04:47:21.754Z,100.0
2017-11-04T04:48:23.213Z,100.0
2017-11-04T04:49:24.700Z,100.0
2017-11-04T04:50:26.190Z,100.0
2017-11-04T04:51:27.642Z,100.0
2017-11-04T04:52:29.122Z,100.0
2017-11-04T04:53:30.584Z,100.0
2017-11-04T04:54:32.063Z,100.0
2017-11-04T04:55:33.522Z,100.0
2017-11-04T04:56:34.995Z,100.0
2017-11-04T04:57:36.406Z,100.0
2017-11-04T04:58:37.881Z,100.0
2017-11-04T04:59:39.368Z,100.0
2017-11-04T05:00:40.807Z,100.0
2017-11-04T05:01:42.237Z,100.0
2017-11-04T05:02:43.757Z,100.0
2017-11-04T05:03:45.207Z,100.0
2017-11-04T05:04:46.676Z,100.0
2017-11-04T05:05:48.192Z,100.0
2017-11-04T05:06:49.667Z,100.0
2017-11-04T05:07:51.166Z,100.0
2017-11-04T05:08:52.732Z,100.0
2017-11-04T05:09:54.196Z,100.0
2017-11-04T05:10:55.673Z,100.0
2017-11-04T05:11:57.118Z,100.0
2017-11-04T05:12:58.600Z,100.0
2017-11-04T05:14:00.062Z,100.0
2017-11-04T05:15:01.510Z,100.0
2017-11-04T05:16:02.995Z,100.0
2017-11-04T05:17:04.475Z,100.0
2017-11-04T05:18:06.005Z,100.0
2017-11-04T05:19:07.416Z,100.0
2017-11-04T05:20:08.839Z,100.0
2017-11-04T05:21:10.389Z,100.0
2017-11-04T05:22:11.801Z,100.0
2017-11-04T05:23:13.268Z,100.0
2017-11-04T05:24:14.744Z,100.0
2017-11-04T05:25:16.187Z,100.0
2017-11-04T05:26:17.670Z,100.0
2017-11-04T05:27:19.105Z,100.0
2017-11-04T05:28:20.587Z,100.0
2017-11-04T05:29:22.036Z,100.0
2017-11-04T05:30:23.463Z,100.0
2017-11-04T05:31:24.946Z,100.0
2017-11-04T05:32:26.363Z,100.0
2017-11-04T05:33:27.833Z,100.0
2017-11-04T05:34:29.270Z,100.0
2017-11-04T05:35:30.769Z,100.0
2017-11-04T05:36:32.195Z,100.0
2017-11-04T05:37:33.635Z,100.0
2017-11-04T05:38:35.063Z,100.0
2017-11-04T05:39:36.550Z,100.0
2017-11-04T05:40:37.999Z,100.0
2017-11-04T05:41:39.470Z,100.0
2017-11-04T05:42:40.935Z,100.0
2017-11-04T05:43:42.509Z,100.0
2017-11-04T05:44:43.987Z,100.0
2017-11-04T05:45:45.448Z,100.0
2017-11-04T05:46:46.918Z,100.0
2017-11-04T05:47:48.393Z,100.0
2017-11-04T05:48:49.865Z,100.0
2017-11-04T05:49:51.374Z,100.0
2017-11-04T05:50:52.819Z,100.0
2017-11-04T05:51:54.326Z,100.0
2017-11-04T05:52:55.830Z,100.0
2017-11-04T05:53:57.324Z,100.0
2017-11-04T05:54:58.898Z,100.0
2017-11-04T05:56:00.344Z,100.0
2017-11-04T05:57:01.838Z,100.0
2017-11-04T05:58:03.352Z,100.0
2017-11-04T05:59:04.823Z,100.0
2017-11-04T06:00:06.270Z,100.0
2017-11-04T06:01:07.722Z,100.0
2017-11-04T06:02:09.211Z,100.0
2017-11-04T06:03:10.641Z,100.0
2017-11-04T06:04:12.145Z,100.0
2017-11-04T06:05:13.560Z,100.0
2017-11-04T06:06:15.010Z,100.0
2017-11-04T06:07:16.444Z,100.0
2017-11-04T06:08:17.969Z,100.0
2017-11-04T06:09:19.426Z,100.0
2017-11-04T06:10:20.884Z,100.0
2017-11-04T06:11:22.338Z,100.0
2017-11-04T06:12:23.821Z,100.0
2017-11-04T06:13:25.272Z,100.0
2017-11-04T06:14:26.717Z,100.0
2017-11-04T06:15:28.189Z,100.0
2017-11-04T06:16:29.718Z,100.0
2017-11-04T06:17:31.159Z,100.0
2017-11-04T06:18:32.611Z,100.0
2017-11-04T06:19:34.071Z,100.0
2017-11-04T06:20:35.562Z,100.0
2017-11-04T06:21:37.014Z,100.0
2017-11-04T06:22:38.472Z,100.0
2017-11-04T06:23:39.944Z,100.0
2017-11-04T06:24:41.384Z,100.0
2017-11-04T06:25:42.823Z,100.0
2017-11-04T06:26:44.382Z,100.0
2017-11-04T06:27:45.867Z,100.0
2017-11-04T06:28:47.312Z,100.0
2017-11-04T06:29:48.784Z,100.0
2017-11-04T06:30:50.267Z,100.0
2017-11-04T06:31:51.728Z,100.0
2017-11-04T06:32:53.215Z,100.0
2017-11-04T06:33:54.658Z,100.0
2017-11-04T06:34:56.132Z,100.0
2017-11-04T06:35:57.667Z,100.0
2017-11-04T06:36:59.114Z,100.0
2017-11-04T06:38:00.612Z,100.0
2017-11-04T06:39:02.070Z,100.0
2017-11-04T06:40:03.555Z,100.0
2017-11-04T06:41:04.981Z,100.0
2017-11-04T06:42:06.481Z,100.0
2017-11-04T06:43:07.935Z,100.0
2017-11-04T06:44:09.412Z,100.0
2017-11-04T06:45:10.898Z,100.0
2017-11-04T06:46:12.361Z,100.0
2017-11-04T06:47:13.858Z,100.0
2017-11-04T06:48:15.348Z,100.0
2017-11-04T06:49:16.815Z,100.0
2017-11-04T06:50:18.280Z,100.0
2017-11-04T06:51:19.755Z,100.0
2017-11-04T06:52:21.264Z,100.0
2017-11-04T06:53:22.736Z,100.0
2017-11-04T06:54:24.184Z,100.0
2017-11-04T06:55:25.603Z,100.0
2017-11-04T06:56:27.075Z,100.0
2017-11-04T06:57:28.586Z,100.0
2017-11-04T06:58:30.030Z,100.0
2017-11-04T06:59:31.463Z,100.0
2017-11-04T07:00:32.948Z,100.0
2017-11-04T07:01:34.406Z,100.0
2017-11-04T07:02:35.852Z,100.0
2017-11-04T07:03:37.327Z,100.0
2017-11-04T07:04:38.785Z,100.0
2017-11-04T07:05:40.266Z,100.0
2017-11-04T07:06:41.705Z,100.0
2017-11-04T07:07:43.214Z,100.0
2017-11-04T07:08:44.694Z,100.0
2017-11-04T07:09:46.150Z,100.0
2017-11-04T07:10:47.647Z,100.0
2017-11-04T07:11:49.143Z,100.0
2017-11-04T07:12:50.592Z,100.0
2017-11-04T07:13:52.084Z,100.0
2017-11-04T07:14:53.533Z,100.0
2017-11-04T07:15:55.025Z,100.0
2017-11-04T07:16:56.482Z,100.0
2017-11-04T07:17:57.955Z,100.0
2017-11-04T07:18:59.435Z,100.0
2017-11-04T07:20:01.057Z,100.0
2017-11-04T07:21:02.552Z,100.0
2017-11-04T07:22:04.016Z,100.0
2017-11-04T07:23:05.484Z,100.0
2017-11-04T07:24:06.920Z,100.0
2017-11-04T07:25:08.396Z,100.0
2017-11-04T07:26:09.824Z,100.0
2017-11-04T07:27:11.388Z,100.0
2017-11-04T07:28:13.163Z,100.0
2017-11-04T07:29:14.659Z,100.0
2017-11-04T07:30:16.097Z,100.0
2017-11-04T07:31:17.611Z,100.0
2017-11-04T07:32:19.034Z,100.0
2017-11-04T07:33:20.515Z,100.0
2017-11-04T07:34:22.021Z,100.0
2017-11-04T07:35:23.491Z,100.0
2017-11-04T07:36:24.952Z,100.0
2017-11-04T07:37:26.388Z,100.0
2017-11-04T07:38:27.867Z,100.0
2017-11-04T07:39:29.310Z,100.0
2017-11-04T07:40:30.742Z,100.0
2017-11-04T07:41:32.211Z,100.0
2017-11-04T07:42:33.671Z,100.0
2017-11-04T07:43:35.141Z,100.0
2017-11-04T07:44:36.653Z,100.0
2017-11-04T07:45:38.075Z,100.0
2017-11-04T07:46:39.535Z,100.0
2017-11-04T07:47:40.978Z,100.0
2017-11-04T07:48:42.506Z,100.0
2017-11-04T07:49:43.957Z,100.0
2017-11-04T07:50:45.391Z,100.0
2017-11-04T07:51:46.947Z,100.0
2017-11-04T07:52:48.397Z,100.0
2017-11-04T07:53:49.881Z,100.0
2017-11-04T07:54:51.329Z,100.0
2017-11-04T07:55:52.844Z,100.0
2017-11-04T07:56:54.343Z,100.0
2017-11-04T07:57:55.806Z,100.0
2017-11-04T07:58:57.334Z,100.0
2017-11-04T07:59:59.551Z,100.0
2017-11-04T08:01:01.020Z,100.0
2017-11-04T08:02:02.505Z,100.0
2017-11-04T08:03:04.033Z,100.0
2017-11-04T08:04:05.491Z,100.0
2017-11-04T08:05:06.959Z,100.0
2017-11-04T08:06:08.466Z,100.0
2017-11-04T08:07:09.917Z,100.0
2017-11-04T08:08:11.354Z,100.0
2017-11-04T08:09:12.838Z,100.0
2017-11-04T08:10:14.304Z,100.0
2017-11-04T08:11:15.749Z,100.0
2017-11-04T08:12:17.243Z,100.0
2017-11-04T08:13:18.709Z,100.0
2017-11-04T08:14:20.172Z,100.0
2017-11-04T08:15:21.728Z,100.0
2017-11-04T08:16:23.193Z,100.0
2017-11-04T08:17:24.654Z,100.0
2017-11-04T08:18:26.143Z,100.0
2017-11-04T08:19:27.728Z,100.0
2017-11-04T08:20:29.175Z,100.0
2017-11-04T08:21:30.632Z,100.0
2017-11-04T08:22:32.157Z,100.0
2017-11-04T08:23:33.915Z,100.0
2017-11-04T08:24:35.751Z,100.0
2017-11-04T08:25:37.177Z,100.0
2017-11-04T08:26:38.730Z,100.0
2017-11-04T08:27:40.273Z,100.0
2017-11-04T08:28:41.899Z,100.0
2017-11-04T08:29:43.356Z,100.0
2017-11-04T08:30:44.861Z,100.0
2017-11-04T08:31:46.397Z,100.0
2017-11-04T08:32:47.906Z,100.0
2017-11-04T08:33:49.385Z,100.0
2017-11-04T08:34:50.824Z,100.0
2017-11-04T08:35:52.361Z,100.0
2017-11-04T08:36:53.887Z,100.0
2017-11-04T08:37:55.338Z,100.0
2017-11-04T08:38:56.880Z,100.0
2017-11-04T08:39:58.354Z,100.0
2017-11-04T08:40:59.886Z,100.0
2017-11-04T08:42:01.423Z,100.0
2017-11-04T08:43:02.908Z,100.0
2017-11-04T08:44:04.388Z,100.0
2017-11-04T08:45:05.892Z,100.0
2017-11-04T08:46:07.396Z,100.0
2017-11-04T08:47:08.936Z,100.0
2017-11-04T08:48:10.349Z,100.0
2017-11-04T08:49:11.918Z,100.0
2017-11-04T08:50:13.453Z,100.0
2017-11-04T08:51:14.922Z,100.0
2017-11-04T08:52:16.559Z,100.0
2017-11-04T08:53:18.046Z,100.0
2017-11-04T08:54:19.518Z,100.0
2017-11-04T08:55:20.987Z,100.0
2017-11-04T08:56:22.450Z,99.9
2017-11-04T08:57:23.983Z,98.4
2017-11-04T08:58:25.474Z,98.7
2017-11-04T08:59:26.954Z,98.5
2017-11-04T09:00:28.387Z,98.1
2017-11-04T09:01:29.875Z,96.7
2017-11-04T09:02:31.371Z,96.1
2017-11-04T09:03:32.856Z,94.8
2017-11-04T09:04:34.350Z,94.1
2017-11-04T09:05:35.947Z,92.7
2017-11-04T09:06:37.502Z,91.7
2017-11-04T09:07:39.017Z,91.5
2017-11-04T09:08:40.599Z,91.1
2017-11-04T09:09:42.139Z,90.3
2017-11-04T09:10:43.728Z,90.7
2017-11-04T09:11:45.250Z,90.2
2017-11-04T09:12:46.877Z,89.5
2017-11-04T09:13:48.507Z,88.3
2017-11-04T09:14:50.082Z,87.3
2017-11-04T09:15:51.591Z,86.5
2017-11-04T09:16:53.081Z,85.5
2017-11-04T09:17:54.674Z,83.8
2017-11-04T09:18:56.221Z,83.5
2017-11-04T09:19:57.698Z,82.3
2017-11-04T09:20:59.233Z,82.3
2017-11-04T09:22:00.733Z,82.5
2017-11-04T09:23:02.310Z,83.3
2017-11-04T09:24:03.875Z,83.0
2017-11-04T09:25:05.456Z,82.1
2017-11-04T09:26:07.049Z,81.3
2017-11-04T09:27:08.617Z,80.9
2017-11-04T09:28:10.208Z,80.8
2017-11-04T09:29:11.627Z,80.2
2017-11-04T09:30:13.062Z,79.0
2017-11-04T09:31:14.596Z,77.4
2017-11-04T09:32:16.044Z,76.8
2017-11-04T09:33:17.486Z,76.1
2017-11-04T09:34:18.898Z,76.5
2017-11-04T09:35:20.331Z,77.3
2017-11-04T09:36:21.762Z,79.1
2017-11-04T09:37:23.215Z,80.3
2017-11-04T09:38:24.640Z,81.0
2017-11-04T09:39:26.197Z,80.7
2017-11-04T09:40:27.632Z,80.8
2017-11-04T09:41:29.046Z,81.6
2017-11-04T09:42:30.526Z,82.6
2017-11-04T09:43:32.036Z,83.3
2017-11-04T09:44:33.504Z,83.6
2017-11-04T09:45:34.918Z,83.3
2017-11-04T09:46:36.344Z,82.6
2017-11-04T09:47:37.905Z,82.7
2017-11-04T09:48:39.418Z,82.8
2017-11-04T09:49:40.961Z,83.0
2017-11-04T09:50:42.485Z,82.6
2017-11-04T09:51:44.086Z,82.5
2017-11-04T09:52:45.559Z,81.3
2017-11-04T09:53:47.058Z,79.3
2017-11-04T09:54:48.649Z,78.1
2017-11-04T09:55:50.133Z,76.6
2017-11-04T09:56:51.613Z,72.6
2017-11-04T09:57:53.015Z,69.2
2017-11-04T09:58:54.572Z,66.9
2017-11-04T09:59:56.059Z,65.3
2017-11-04T10:00:57.495Z,65.1
2017-11-04T10:01:59.041Z,64.4
2017-11-04T10:03:00.568Z,64.2
2017-11-04T10:04:02.059Z,64.1
2017-11-04T10:05:03.568Z,64.0
2017-11-04T10:06:05.012Z,63.6
2017-11-04T10:07:06.435Z,63.1
2017-11-04T10:08:07.873Z,63.0
2017-11-04T10:09:09.361Z,62.6
2017-11-04T10:10:10.856Z,63.8
2017-11-04T10:11:12.268Z,64.5
2017-11-04T10:12:13.710Z,64.6
2017-11-04T10:13:15.189Z,65.4
2017-11-04T10:14:16.690Z,68.1
2017-11-04T10:15:18.109Z,70.6
2017-11-04T10:16:19.591Z,72.4
2017-11-04T10:17:21.108Z,73.4
2017-11-04T10:18:22.634Z,73.8
2017-11-04T10:19:24.088Z,74.2
2017-11-04T10:20:25.539Z,72.8
2017-11-04T10:21:26.985Z,71.0
2017-11-04T10:22:28.448Z,69.2
2017-11-04T10:23:29.948Z,66.0
2017-11-04T10:24:31.385Z,63.7
2017-11-04T10:25:32.829Z,62.1
2017-11-04T10:26:34.257Z,60.8
2017-11-04T10:27:35.772Z,61.0
2017-11-04T10:28:37.207Z,62.0
2017-11-04T10:29:39.119Z,61.8
2017-11-04T10:30:40.568Z,61.6
2017-11-04T10:31:42.006Z,62.1
2017-11-04T10:32:43.427Z,61.6
2017-11-04T10:33:44.918Z,62.4
2017-11-04T10:34:46.379Z,63.8
2017-11-04T10:35:47.804Z,63.9
2017-11-04T10:36:49.268Z,64.0
2017-11-04T10:37:50.696Z,64.3
2017-11-04T10:38:52.110Z,64.0
2017-11-04T10:39:53.523Z,64.0
2017-11-04T10:40:54.960Z,64.4
2017-11-04T10:41:56.399Z,63.2
2017-11-04T10:42:57.805Z,62.2
2017-11-04T10:43:59.258Z,62.0
2017-11-04T10:45:00.763Z,62.9
2017-11-04T10:46:02.256Z,63.4
2017-11-04T10:47:03.670Z,63.6
2017-11-04T10:48:05.098Z,63.5
2017-11-04T10:49:06.528Z,63.0
2017-11-04T10:50:07.946Z,63.0
2017-11-04T10:51:09.388Z,62.5
2017-11-04T10:52:10.866Z,62.1
2017-11-04T10:53:12.307Z,61.3
2017-11-04T10:54:13.780Z,62.6
2017-11-04T10:55:15.349Z,62.6
2017-11-04T10:56:16.856Z,61.6
2017-11-04T10:57:18.407Z,60.6
2017-11-04T10:58:19.941Z,60.0
2017-11-04T10:59:21.441Z,58.6
2017-11-04T11:00:22.877Z,58.2
2017-11-04T11:01:24.312Z,58.0
2017-11-04T11:02:25.738Z,57.9
2017-11-04T11:03:27.277Z,57.9
2017-11-04T11:04:28.814Z,57.7
2017-11-04T11:05:30.225Z,57.2
2017-11-04T11:06:31.772Z,58.8
2017-11-04T11:07:33.242Z,59.5
2017-11-04T11:08:34.656Z,59.5
2017-11-04T11:09:36.064Z,57.9
2017-11-04T11:10:37.553Z,56.6
2017-11-04T11:11:38.991Z,55.8
2017-11-04T11:12:40.400Z,55.5
2017-11-04T11:13:41.895Z,56.4
2017-11-04T11:14:43.498Z,56.7
2017-11-04T11:15:44.928Z,58.1
2017-11-04T11:16:46.347Z,58.7
2017-11-04T11:17:47.864Z,57.9
2017-11-04T11:18:49.319Z,58.1
2017-11-04T11:19:50.887Z,58.2
2017-11-04T11:20:52.355Z,59.8
2017-11-04T11:21:53.837Z,61.5
2017-11-04T11:22:55.325Z,63.0
2017-11-04T11:23:56.773Z,61.7
2017-11-04T11:24:58.240Z,60.8
2017-11-04T11:25:59.637Z,59.6
2017-11-04T11:27:01.061Z,59.6
2017-11-04T11:28:02.477Z,60.3
2017-11-04T11:29:03.945Z,61.6
2017-11-04T11:30:05.439Z,61.5
2017-11-04T11:31:06.911Z,61.6
2017-11-04T11:32:08.387Z,61.3
2017-11-04T11:33:09.862Z,60.7
2017-11-04T11:34:11.380Z,60.7
2017-11-04T11:35:12.904Z,61.1
2017-11-04T11:36:15.014Z,59.8
2017-11-04T11:37:16.542Z,59.7
2017-11-04T11:38:18.097Z,58.8
2017-11-04T11:39:19.753Z,57.4
2017-11-04T11:40:21.231Z,57.4
2017-11-04T11:41:22.779Z,56.8
2017-11-04T11:42:24.704Z,56.9
2017-11-04T11:43:26.118Z,57.4
2017-11-04T11:44:27.584Z,58.2
2017-11-04T11:45:29.128Z,58.6
2017-11-04T11:46:30.715Z,58.8
2017-11-04T11:47:32.153Z,59.1
2017-11-04T11:48:33.645Z,58.2
2017-11-04T11:49:35.185Z,58.8
2017-11-04T11:50:36.707Z,58.9
2017-11-04T11:51:38.205Z,59.5
2017-11-04T11:52:39.641Z,59.4
2017-11-04T11:53:41.148Z,59.8
2017-11-04T11:54:43.777Z,60.4
2017-11-04T11:55:45.396Z,60.8
2017-11-04T11:56:53.662Z,63.1
2017-11-04T11:57:55.183Z,63.7
2017-11-04T11:58:56.667Z,63.7
2017-11-04T11:59:58.175Z,64.0
2017-11-04T12:01:00.122Z,63.1
2017-11-04T12:02:01.551Z,63.3
2017-11-04T12:03:03.253Z,63.2
2017-11-04T12:04:05.057Z,62.8
2017-11-04T12:05:06.563Z,62.2
2017-11-04T12:06:07.949Z,61.7
2017-11-04T12:07:09.493Z,61.0
2017-11-04T12:08:10.930Z,60.8
2017-11-04T12:09:12.628Z,61.2
2017-11-04T12:10:14.155Z,61.6
2017-11-04T12:11:16.414Z,62.0
2017-11-04T12:12:17.816Z,62.6
2017-11-04T12:13:19.227Z,63.3
2017-11-04T12:14:20.762Z,64.2
2017-11-04T12:15:22.175Z,64.7
2017-11-04T12:16:23.583Z,65.0
2017-11-04T12:17:24.999Z,66.4
2017-11-04T12:18:26.541Z,67.1
2017-11-04T12:19:28.001Z,67.1
2017-11-04T12:20:29.530Z,68.4
2017-11-04T12:21:30.989Z,68.0
2017-11-04T12:22:32.482Z,68.6
2017-11-04T12:23:33.987Z,68.8
2017-11-04T12:24:35.582Z,68.6
2017-11-04T12:25:38.100Z,68.5
2017-11-04T12:26:39.937Z,68.5
2017-11-04T12:27:41.412Z,68.6
2017-11-04T12:28:42.872Z,68.5
2017-11-04T12:29:44.287Z,68.3
2017-11-04T12:30:45.724Z,68.2
2017-11-04T12:31:47.172Z,68.2
2017-11-04T12:32:48.953Z,68.4
2017-11-04T12:33:50.442Z,68.3
2017-11-04T12:34:51.894Z,68.7
2017-11-04T12:35:53.445Z,68.1
2017-11-04T12:36:54.893Z,67.5
2017-11-04T12:37:56.439Z,67.2
2017-11-04T12:38:57.928Z,66.9
2017-11-04T12:39:59.413Z,66.7
2017-11-04T12:41:00.930Z,67.1
2017-11-04T12:42:02.492Z,66.8
2017-11-04T12:43:03.928Z,66.8
2017-11-04T12:44:05.386Z,67.5
2017-11-04T12:45:06.850Z,68.2
2017-11-04T12:46:08.319Z,68.3
2017-11-04T12:47:09.798Z,69.1
2017-11-04T12:48:11.264Z,69.8
2017-11-04T12:49:12.666Z,70.1
2017-11-04T12:50:14.093Z,69.9
2017-11-04T12:51:15.593Z,70.7
2017-11-04T12:52:17.090Z,70.3
2017-11-04T12:53:18.523Z,70.8
2017-11-04T12:54:20.060Z,70.7
2017-11-04T12:55:21.593Z,71.2
2017-11-04T12:56:23.096Z,70.8
2017-11-04T12:57:24.638Z,70.1
2017-11-04T12:58:26.192Z,69.6
2017-11-04T12:59:27.756Z,69.0
2017-11-04T13:00:29.255Z,69.8
2017-11-04T13:01:30.842Z,69.7
2017-11-04T13:02:32.397Z,70.1
2017-11-04T13:03:33.857Z,70.7
2017-11-04T13:04:36.441Z,70.8
2017-11-04T13:05:37.972Z,70.7
2017-11-04T13:06:39.563Z,70.9
2017-11-04T13:07:40.978Z,71.3
2017-11-04T13:08:42.407Z,71.0
2017-11-04T13:09:43.892Z,71.8
2017-11-04T13:10:45.494Z,72.2
2017-11-04T13:11:47.032Z,72.1
2017-11-04T13:12:48.633Z,72.2
2017-11-04T13:13:50.058Z,72.5
2017-11-04T13:14:51.528Z,72.7
2017-11-04T13:15:53.573Z,72.9
2017-11-04T13:16:55.506Z,73.8
2017-11-04T13:17:56.984Z,74.3
2017-11-04T13:18:58.870Z,74.2
2017-11-04T13:20:00.639Z,74.5
2017-11-04T13:21:02.098Z,75.2